Time;durP1;ratioP1;P1;durP2;ratioP2;P2;SDS_P1;SDS_P2;PMS_P1;PMS_P2;Temp;Humidity;BMP_temperature;BMP_pressure;BME280_temperature;BME280_humidity;BME280_pressure;Samples;Min_cycle;Max_cycle;Signal;HPM_P1;HPM_P2
2023/07/12 00:01:00;;;;;;;1.23;0.90;;;;;;;30.96;38.34;100776.19;4993545;28;98375;-78
2023/07/12 00:03:28;;;;;;;1.63;1.23;;;;;;;30.95;38.28;100780.06;4978016;28;96679;-78
2023/07/12 00:05:56;;;;;;;1.48;0.93;;;;;;;30.95;38.50;100774.50;4992317;28;96874;-78
2023/07/12 00:08:27;;;;;;;1.25;0.80;;;;;;;30.95;38.30;100768.97;4997157;28;97847;-78
2023/07/12 00:10:56;;;;;;;1.13;0.75;;;;;;;30.95;38.25;100771.75;4985597;28;96674;-78
2023/07/12 00:13:24;;;;;;;1.67;0.93;;;;;;;30.95;38.24;100773.66;4995717;28;96905;-78
2023/07/12 00:15:52;;;;;;;1.58;1.08;;;;;;;30.94;38.59;100771.97;4979877;28;96784;-78
2023/07/12 00:18:25;;;;;;;1.73;1.10;;;;;;;30.95;38.33;100766.19;4997181;28;98564;-78
2023/07/12 00:20:53;;;;;;;1.08;0.90;;;;;;;30.93;38.53;100762.81;4980793;28;98436;-78
2023/07/12 00:23:20;;;;;;;2.08;0.90;;;;;;;30.94;38.59;100761.72;4996650;28;97126;-78
2023/07/12 00:25:48;;;;;;;1.38;0.90;;;;;;;30.94;38.19;100758.97;4980780;28;97003;-78
2023/07/12 00:28:21;;;;;;;1.10;0.80;;;;;;;30.95;38.33;100768.13;4999722;28;96701;-78
2023/07/12 00:30:50;;;;;;;1.52;0.90;;;;;;;30.94;38.43;100763.66;4999652;28;96688;-78
2023/07/12 00:33:18;;;;;;;1.73;1.15;;;;;;;30.93;38.32;100770.28;4980493;28;97141;-78
2023/07/12 00:35:45;;;;;;;1.70;0.90;;;;;;;30.93;38.55;100764.75;4975440;28;96774;-78
2023/07/12 00:38:19;;;;;;;1.23;1.00;;;;;;;30.93;38.36;100781.38;4995930;28;97188;-78
2023/07/12 00:40:58;;;;;;;1.38;1.00;;;;;;;30.93;38.63;100786.94;4976338;28;98457;-78
2023/07/12 00:43:35;;;;;;;1.65;0.90;;;;;;;30.92;38.37;100796.34;4991455;28;96773;-78
2023/07/12 00:46:10;;;;;;;1.55;0.95;;;;;;;30.91;38.26;100801.06;4987763;28;97169;-78
2023/07/12 00:48:37;;;;;;;1.77;1.02;;;;;;;30.91;38.55;100803.81;4992650;28;98566;-78
2023/07/12 00:51:27;;;;;;;2.70;0.90;;;;;;;30.92;38.64;100813.81;4991914;28;97207;-78
2023/07/12 00:53:57;;;;;;;1.73;0.98;;;;;;;30.91;38.49;100814.06;4989165;28;96777;-78
2023/07/12 00:56:25;;;;;;;1.50;0.90;;;;;;;30.91;38.67;100811.28;4981402;28;96838;-78
2023/07/12 00:59:03;;;;;;;0.90;0.70;;;;;;;30.92;38.40;100807.44;4980091;28;98980;-79
2023/07/12 01:01:35;;;;;;;1.70;1.02;;;;;;;30.91;38.52;100811.28;4979639;28;99864;-77
2023/07/12 01:04:03;;;;;;;1.98;1.13;;;;;;;30.91;38.59;100817.69;4997127;28;96788;-79
2023/07/12 01:06:30;;;;;;;2.63;1.00;;;;;;;30.91;38.55;100820.47;4994774;28;96918;-78
2023/07/12 01:09:01;;;;;;;1.00;0.88;;;;;;;30.91;38.53;100823.22;4977575;28;98721;-78
2023/07/12 01:11:29;;;;;;;1.35;0.90;;;;;;;30.91;38.59;100834.31;4993940;28;98765;-78
2023/07/12 01:13:56;;;;;;;2.50;1.15;;;;;;;30.91;38.33;100833.47;4975481;28;97386;-78
2023/07/12 01:16:24;;;;;;;1.17;0.85;;;;;;;30.91;38.63;100831.56;4985935;28;98606;-78
2023/07/12 01:18:51;;;;;;;1.00;0.60;;;;;;;30.90;38.27;100853.97;4991098;28;96981;-78
2023/07/12 01:21:22;;;;;;;1.02;0.75;;;;;;;30.91;38.71;100841.81;4966069;28;99550;-78
2023/07/12 01:23:49;;;;;;;0.93;0.73;;;;;;;30.91;38.52;100844.56;4992920;28;96743;-78
2023/07/12 01:26:20;;;;;;;1.10;0.70;;;;;;;30.91;38.71;100856.50;4992191;28;97205;-78
2023/07/12 01:28:50;;;;;;;1.30;1.00;;;;;;;30.91;38.18;100852.91;4987926;28;99885;-78
2023/07/12 01:31:18;;;;;;;1.10;0.60;;;;;;;30.89;38.32;100843.97;4995151;28;96677;-79
2023/07/12 01:33:45;;;;;;;1.35;0.90;;;;;;;30.90;38.20;100846.50;4994335;28;96830;-78
2023/07/12 01:36:12;;;;;;;1.48;0.90;;;;;;;30.90;38.61;100845.66;4991778;28;96979;-78
2023/07/12 01:38:40;;;;;;;1.08;0.75;;;;;;;30.89;38.59;100822.63;4993305;28;96818;-78
2023/07/12 01:41:06;;;;;;;1.13;0.70;;;;;;;30.90;38.41;100823.47;4987630;28;99838;-78
2023/07/12 01:43:35;;;;;;;1.40;0.82;;;;;;;30.90;38.61;100842.91;4978353;28;96851;-78
2023/07/12 01:46:02;;;;;;;1.20;0.85;;;;;;;30.89;38.47;100846.75;4994316;28;96874;-78
2023/07/12 01:48:29;;;;;;;0.95;0.70;;;;;;;30.88;38.55;100847.84;4991609;28;100193;-78
2023/07/12 01:50:58;;;;;;;1.65;0.90;;;;;;;30.89;38.44;100839.28;4993773;28;97519;-78
2023/07/12 01:53:26;;;;;;;1.35;0.90;;;;;;;30.88;38.67;100825.66;4974044;28;96888;-78
2023/07/12 01:55:53;;;;;;;1.45;0.80;;;;;;;30.87;38.59;100822.03;4966546;28;96635;-78
2023/07/12 01:58:21;;;;;;;2.50;0.82;;;;;;;30.87;38.44;100815.66;4979304;28;98536;-78
2023/07/12 02:00:49;;;;;;;1.45;0.85;;;;;;;30.87;38.38;100813.72;4974237;28;97076;-78
2023/07/12 02:03:16;;;;;;;1.10;0.70;;;;;;;30.86;38.32;100811.19;4990889;28;97275;-78
2023/07/12 02:05:43;;;;;;;1.70;0.85;;;;;;;30.87;38.43;100799.00;4974701;28;96877;-78
2023/07/12 02:08:11;;;;;;;0.98;0.70;;;;;;;30.86;38.57;100809.25;4990613;28;96969;-78
2023/07/12 02:10:37;;;;;;;1.30;0.63;;;;;;;30.86;38.55;100811.19;4994350;28;99073;-78
2023/07/12 02:13:04;;;;;;;0.85;0.68;;;;;;;30.86;38.80;100828.66;4974804;28;97928;-78
2023/07/12 02:15:31;;;;;;;1.30;1.10;;;;;;;30.85;38.38;100831.69;4970838;28;96982;-78
2023/07/12 02:17:57;;;;;;;1.08;0.70;;;;;;;30.85;38.68;100843.63;4995574;28;96846;-78
2023/07/12 02:20:24;;;;;;;0.85;0.57;;;;;;;30.86;38.63;100842.53;4977877;28;98308;-78
2023/07/12 02:22:51;;;;;;;1.42;0.80;;;;;;;30.86;38.39;100859.16;4993884;28;97429;-80
2023/07/12 02:25:21;;;;;;;0.98;0.55;;;;;;;30.84;38.46;100833.63;4977895;28;96778;-79
2023/07/12 02:27:49;;;;;;;1.10;0.80;;;;;;;30.86;38.62;100806.47;4978114;28;98632;-79
2023/07/12 02:30:18;;;;;;;1.08;0.70;;;;;;;30.85;38.37;100812.28;4995749;28;97367;-79
2023/07/12 02:32:45;;;;;;;1.15;0.77;;;;;;;30.85;38.63;100790.09;4979262;28;96757;-79
2023/07/12 02:35:12;;;;;;;1.00;0.80;;;;;;;30.85;38.52;100826.13;4993280;28;96761;-79
2023/07/12 02:37:39;;;;;;;2.05;1.00;;;;;;;30.83;38.39;100840.25;4968162;28;99146;-79
2023/07/12 02:40:08;;;;;;;1.23;0.88;;;;;;;30.85;38.51;100856.63;4992896;28;97482;-79
2023/07/12 02:42:35;;;;;;;0.80;0.70;;;;;;;30.83;38.61;100856.88;4994697;28;96867;-79
2023/07/12 02:45:02;;;;;;;0.95;0.70;;;;;;;30.84;38.29;100853.03;4991479;28;96980;-79
2023/07/12 02:47:29;;;;;;;1.05;0.70;;;;;;;30.82;38.47;100863.53;4995894;28;96848;-79
2023/07/12 02:49:56;;;;;;;0.85;0.50;;;;;;;30.82;38.35;100833.00;4990561;28;98675;-79
2023/07/12 02:52:22;;;;;;;1.20;0.70;;;;;;;30.82;38.29;100815.53;4997297;28;96675;-79
2023/07/12 02:54:49;;;;;;;1.15;0.68;;;;;;;30.82;38.29;100791.41;4975780;28;96892;-79
2023/07/12 02:57:15;;;;;;;1.20;0.88;;;;;;;30.82;38.50;100791.41;4995212;28;96993;-79
2023/07/12 02:59:42;;;;;;;0.90;0.70;;;;;;;30.82;37.78;100807.22;4993931;28;96739;-79
2023/07/12 03:02:12;;;;;;;1.02;0.57;;;;;;;30.82;38.55;100813.59;4996518;28;97307;-79
2023/07/12 03:04:39;;;;;;;1.73;1.02;;;;;;;30.81;38.68;100828.56;4992504;28;97871;-79
2023/07/12 03:07:06;;;;;;;0.90;0.68;;;;;;;30.81;38.28;100817.47;4991160;28;99653;-79
2023/07/12 03:09:33;;;;;;;0.82;0.70;;;;;;;30.82;38.46;100826.63;4989561;28;96883;-79
2023/07/12 03:11:59;;;;;;;0.80;0.68;;;;;;;30.80;38.33;100813.00;4996087;28;96768;-80
2023/07/12 03:14:27;;;;;;;0.73;0.50;;;;;;;30.81;38.40;100828.56;4988398;28;97389;-80
2023/07/12 03:16:54;;;;;;;1.05;0.80;;;;;;;30.80;38.47;100787.22;4972694;28;97859;-79
2023/07/12 03:19:22;;;;;;;0.95;0.65;;;;;;;30.80;38.75;100807.47;4989191;28;97035;-79
2023/07/12 03:21:48;;;;;;;0.90;0.52;;;;;;;30.80;38.18;100826.03;4972615;28;96822;-80
2023/07/12 03:24:15;;;;;;;0.88;0.60;;;;;;;30.81;38.52;100844.34;4988097;28;96846;-79
2023/07/12 03:26:42;;;;;;;1.10;0.80;;;;;;;30.79;38.62;100847.38;4988690;28;98437;-79
2023/07/12 03:29:08;;;;;;;0.82;0.60;;;;;;;30.79;38.62;100850.13;4987722;28;98073;-79
2023/07/12 03:31:35;;;;;;;0.75;0.60;;;;;;;30.78;38.32;100856.78;4989636;28;96803;-79
2023/07/12 03:34:02;;;;;;;0.70;0.50;;;;;;;30.79;38.59;100850.13;4986676;28;97704;-79
2023/07/12 03:36:31;;;;;;;1.02;0.70;;;;;;;30.80;38.46;100850.97;4985642;28;98060;-79
2023/07/12 03:38:58;;;;;;;0.90;0.70;;;;;;;30.79;38.40;100843.75;4966320;28;98802;-79
2023/07/12 03:41:26;;;;;;;0.90;0.75;;;;;;;30.77;38.58;100846.75;4974147;28;96620;-79
2023/07/12 03:43:52;;;;;;;0.63;0.50;;;;;;;30.78;38.47;100853.16;4987126;28;96944;-79
2023/07/12 03:46:19;;;;;;;1.00;0.68;;;;;;;30.78;38.48;100855.91;4987445;28;96815;-79
2023/07/12 03:48:46;;;;;;;1.58;0.50;;;;;;;30.77;38.29;100849.53;4985659;28;96709;-79
2023/07/12 03:51:14;;;;;;;0.50;0.47;;;;;;;30.77;38.49;100868.94;4989503;28;96868;-80
2023/07/12 03:53:41;;;;;;;1.58;0.60;;;;;;;30.77;38.26;100874.50;4973516;28;97104;-79
2023/07/12 03:56:09;;;;;;;0.75;0.52;;;;;;;30.77;38.46;100870.88;4986817;28;96955;-79
2023/07/12 03:58:39;;;;;;;0.95;0.60;;;;;;;30.77;38.42;100871.72;4974909;28;96747;-79
2023/07/12 04:01:09;;;;;;;1.13;0.73;;;;;;;30.77;38.29;100881.97;4972221;28;97388;-79
2023/07/12 04:03:37;;;;;;;0.95;0.70;;;;;;;30.75;38.60;100882.19;4976715;28;97270;-80
2023/07/12 04:06:06;;;;;;;0.90;0.50;;;;;;;30.77;38.53;100884.75;4993411;28;97100;-80
2023/07/12 04:08:32;;;;;;;1.10;0.80;;;;;;;30.75;38.58;100882.19;4985386;28;97098;-79
2023/07/12 04:11:00;;;;;;;0.80;0.60;;;;;;;30.75;38.34;100886.91;4967304;28;96800;-79
2023/07/12 04:13:26;;;;;;;1.42;0.60;;;;;;;30.75;38.59;100879.44;4987692;28;96939;-80
2023/07/12 04:15:55;;;;;;;1.23;0.60;;;;;;;30.75;38.41;100884.13;4992677;28;97487;-79
2023/07/12 04:18:23;;;;;;;0.60;0.40;;;;;;;30.75;38.54;100879.44;4993392;28;97586;-79
2023/07/12 04:20:52;;;;;;;0.73;0.50;;;;;;;30.75;38.65;100886.91;4994177;28;97580;-80
2023/07/12 04:23:19;;;;;;;0.80;0.52;;;;;;;30.73;38.33;100897.41;4977986;28;96747;-80
2023/07/12 04:25:45;;;;;;;1.20;0.60;;;;;;;30.73;38.36;100901.00;4994010;28;97734;-80
2023/07/12 04:28:12;;;;;;;0.98;0.65;;;;;;;30.74;38.48;100899.09;4979330;28;96908;-79
2023/07/12 04:30:39;;;;;;;0.90;0.60;;;;;;;30.74;38.56;100893.53;4978879;28;96881;-79
2023/07/12 04:33:05;;;;;;;0.80;0.60;;;;;;;30.73;38.57;100894.63;4986504;28;96826;-79
2023/07/12 04:35:38;;;;;;;1.52;0.80;;;;;;;30.73;38.34;100889.91;4993449;28;98119;-79
2023/07/12 04:38:05;;;;;;;0.70;0.60;;;;;;;30.72;38.33;100899.31;4990369;28;96797;-79
2023/07/12 04:40:31;;;;;;;1.05;0.70;;;;;;;30.72;38.32;100896.56;4972158;28;97629;-80
2023/07/12 04:42:58;;;;;;;1.23;0.60;;;;;;;30.72;38.39;100898.47;4995535;28;96749;-80
2023/07/12 04:45:24;;;;;;;1.90;0.70;;;;;;;30.71;38.41;100894.88;4994653;28;97666;-79
2023/07/12 04:47:51;;;;;;;1.70;0.70;;;;;;;30.71;38.60;100900.41;4993789;28;99051;-79
2023/07/12 04:50:18;;;;;;;0.75;0.50;;;;;;;30.72;38.54;100904.03;4995958;28;96741;-80
2023/07/12 04:52:45;;;;;;;0.80;0.60;;;;;;;30.72;38.44;100899.31;4990789;28;97736;-80
2023/07/12 04:55:38;;;;;;;0.88;0.50;;;;;;;30.72;38.34;100898.47;4974654;28;96697;-80
2023/07/12 04:58:06;;;;;;;1.05;0.52;;;;;;;30.70;38.51;100908.97;4971223;28;98769;-80
2023/07/12 05:00:34;;;;;;;0.75;0.50;;;;;;;30.70;38.53;100914.50;4988214;28;96862;-80
2023/07/12 05:03:01;;;;;;;1.10;0.60;;;;;;;30.70;38.27;100909.81;4993193;28;96658;-80
2023/07/12 05:05:28;;;;;;;1.27;0.55;;;;;;;30.70;38.29;100908.97;4988087;28;97238;-80
2023/07/12 05:07:55;;;;;;;0.77;0.50;;;;;;;30.70;38.18;100906.19;4979056;28;100413;-80
2023/07/12 05:10:22;;;;;;;1.10;0.70;;;;;;;30.71;38.40;100907.88;4976201;28;96760;-80
2023/07/12 05:12:49;;;;;;;1.25;0.52;;;;;;;30.70;38.39;100909.81;4997535;28;96793;-80
2023/07/12 05:15:16;;;;;;;1.00;0.70;;;;;;;30.70;38.29;100909.81;4995737;28;96875;-80
2023/07/12 05:17:43;;;;;;;0.65;0.40;;;;;;;30.70;38.40;100912.59;4988427;28;98542;-80
2023/07/12 05:20:12;;;;;;;0.77;0.52;;;;;;;30.70;38.58;100912.59;4972842;28;99703;-80
2023/07/12 05:22:39;;;;;;;0.70;0.50;;;;;;;30.70;38.21;100922.81;4997522;28;96997;-80
2023/07/12 05:25:06;;;;;;;1.00;0.60;;;;;;;30.70;38.24;100922.81;4995472;28;96865;-80
2023/07/12 05:27:33;;;;;;;1.05;0.50;;;;;;;30.70;38.50;100926.44;4974663;28;97863;-80
2023/07/12 05:30:00;;;;;;;1.35;0.43;;;;;;;30.70;38.29;100925.59;4971017;28;96524;-80
2023/07/12 05:32:27;;;;;;;1.13;0.50;;;;;;;30.70;38.54;100929.22;4993030;28;96699;-80
2023/07/12 05:34:53;;;;;;;1.17;0.60;;;;;;;30.70;38.46;100923.66;4984356;28;97114;-80
2023/07/12 05:37:20;;;;;;;0.60;0.40;;;;;;;30.70;38.26;100926.44;4992576;28;96733;-80
2023/07/12 05:39:46;;;;;;;0.75;0.50;;;;;;;30.70;38.19;100933.91;4993657;28;96801;-81
2023/07/12 05:42:13;;;;;;;0.70;0.52;;;;;;;30.70;38.35;100925.59;4975962;28;96864;-81
2023/07/12 05:44:40;;;;;;;0.80;0.55;;;;;;;30.70;38.12;100929.22;4994967;28;96799;-80
2023/07/12 05:47:07;;;;;;;0.65;0.60;;;;;;;30.71;38.33;100941.16;4979526;28;96689;-80
2023/07/12 05:49:34;;;;;;;0.52;0.43;;;;;;;30.70;38.49;100948.63;4994804;28;96775;-80
2023/07/12 05:52:01;;;;;;;0.63;0.50;;;;;;;30.70;38.47;100948.63;4995480;28;96877;-80
2023/07/12 05:54:30;;;;;;;1.60;0.73;;;;;;;30.71;38.21;100950.31;4992726;28;96718;-80
2023/07/12 05:56:57;;;;;;;0.60;0.50;;;;;;;30.70;38.41;100948.63;4989884;28;97483;-80
2023/07/12 05:59:24;;;;;;;1.50;0.77;;;;;;;30.71;38.24;100953.09;4976852;28;96730;-80
2023/07/12 06:01:50;;;;;;;1.10;0.70;;;;;;;30.72;38.29;100945.63;4995831;28;96781;-80
2023/07/12 06:04:17;;;;;;;0.60;0.40;;;;;;;30.72;38.43;100945.63;4988528;28;97564;-80
2023/07/12 06:06:47;;;;;;;1.77;0.40;;;;;;;30.72;38.55;100960.31;4993908;28;96738;-80
2023/07/12 06:09:14;;;;;;;1.20;0.70;;;;;;;30.72;38.33;100965.03;4987710;28;97005;-80
2023/07/12 06:11:40;;;;;;;1.00;0.60;;;;;;;30.71;38.33;100961.41;4973830;28;96745;-81
2023/07/12 06:14:07;;;;;;;0.85;0.40;;;;;;;30.72;38.46;100965.88;4967464;28;98172;-80
2023/07/12 06:16:34;;;;;;;1.00;0.55;;;;;;;30.72;38.12;100962.25;4972628;28;96866;-81
2023/07/12 06:19:04;;;;;;;0.60;0.50;;;;;;;30.71;38.43;100958.63;4967158;28;96993;-80
2023/07/12 06:21:31;;;;;;;0.73;0.40;;;;;;;30.71;38.33;100963.34;4982259;28;97518;-80
2023/07/12 06:23:59;;;;;;;0.60;0.50;;;;;;;30.71;38.06;100969.72;4986490;28;97702;-80
2023/07/12 06:26:26;;;;;;;0.57;0.50;;;;;;;30.71;38.33;100978.03;4968553;28;96728;-80
2023/07/12 06:28:54;;;;;;;1.30;0.80;;;;;;;30.71;38.21;100972.50;4985533;28;97066;-80
2023/07/12 06:31:21;;;;;;;0.55;0.40;;;;;;;30.70;38.29;100981.91;4989071;28;97006;-81
2023/07/12 06:33:47;;;;;;;0.80;0.60;;;;;;;30.71;38.33;100986.34;4989680;28;96869;-80
2023/07/12 06:36:14;;;;;;;0.82;0.50;;;;;;;30.71;38.46;100989.13;4988428;28;96781;-81
2023/07/12 06:38:40;;;;;;;1.30;0.60;;;;;;;30.71;38.49;100977.19;4964172;28;96859;-79
2023/07/12 06:41:07;;;;;;;1.13;0.60;;;;;;;30.71;38.29;100986.34;4980376;28;97781;-80
2023/07/12 06:43:34;;;;;;;0.88;0.70;;;;;;;30.71;38.26;100991.06;4974361;28;98443;-80
2023/07/12 06:46:04;;;;;;;0.80;0.52;;;;;;;30.71;38.32;101003.00;4984795;28;97346;-80
2023/07/12 06:48:31;;;;;;;0.70;0.60;;;;;;;30.70;38.44;101001.31;4987004;28;96902;-79
2023/07/12 06:50:58;;;;;;;0.57;0.40;;;;;;;30.72;38.28;101009.38;4971926;28;96711;-79
2023/07/12 06:53:26;;;;;;;1.27;0.63;;;;;;;30.71;38.28;101014.09;4970039;28;96743;-80
2023/07/12 06:55:54;;;;;;;1.20;0.60;;;;;;;30.70;38.54;101009.63;4987341;28;97120;-79
2023/07/12 06:58:21;;;;;;;0.90;0.43;;;;;;;30.71;38.29;101016.84;4979061;28;96847;-79
2023/07/12 07:00:48;;;;;;;1.05;0.60;;;;;;;30.71;38.16;101022.41;4987706;28;97131;-80
2023/07/12 07:03:16;;;;;;;0.60;0.50;;;;;;;30.70;38.44;101015.16;4968061;28;100348;-79
2023/07/12 07:05:47;;;;;;;1.10;0.70;;;;;;;30.70;38.13;101015.16;4965736;28;97563;-79
2023/07/12 07:08:15;;;;;;;1.25;0.60;;;;;;;30.70;38.02;101022.63;4982964;28;96777;-79
2023/07/12 07:10:44;;;;;;;1.08;0.60;;;;;;;30.69;38.22;101019.03;4983508;28;96528;-80
2023/07/12 07:13:11;;;;;;;1.15;0.70;;;;;;;30.71;38.15;101029.88;4971135;28;97546;-80
2023/07/12 07:15:37;;;;;;;1.40;0.80;;;;;;;30.69;38.16;101032.88;4971144;28;99842;-80
2023/07/12 07:18:04;;;;;;;0.93;0.73;;;;;;;30.69;38.07;101049.50;4989077;28;96706;-80
2023/07/12 07:20:31;;;;;;;0.70;0.43;;;;;;;30.69;38.05;101030.09;4987186;28;96721;-80
2023/07/12 07:22:59;;;;;;;1.92;0.70;;;;;;;30.69;38.34;101037.59;4986325;28;98855;-80
2023/07/12 07:25:28;;;;;;;0.65;0.52;;;;;;;30.69;38.45;101043.97;4974854;28;98578;-80
2023/07/12 07:27:55;;;;;;;1.38;0.73;;;;;;;30.68;38.24;101050.59;4979154;28;96675;-80
2023/07/12 07:30:22;;;;;;;1.30;0.70;;;;;;;30.67;37.94;101054.44;4975040;28;96940;-80
2023/07/12 07:32:49;;;;;;;1.10;0.70;;;;;;;30.68;38.04;101056.16;4982770;28;96926;-80
2023/07/12 07:35:16;;;;;;;1.05;0.70;;;;;;;30.67;38.24;101057.22;4978684;28;98322;-81
2023/07/12 07:37:45;;;;;;;1.52;0.60;;;;;;;30.67;38.06;101054.44;4969907;28;96653;-79
2023/07/12 07:40:12;;;;;;;1.63;0.80;;;;;;;30.66;38.35;101053.59;4984408;28;97156;-80
2023/07/12 07:42:40;;;;;;;1.27;0.80;;;;;;;30.66;37.99;101053.59;4979756;28;96868;-78
2023/07/12 07:45:09;;;;;;;1.15;0.77;;;;;;;30.67;37.90;101057.22;4980013;28;97992;-78
2023/07/12 07:47:36;;;;;;;1.23;0.70;;;;;;;30.67;38.28;101060.00;4985083;28;96769;-77
2023/07/12 07:50:05;;;;;;;1.27;0.77;;;;;;;30.65;37.91;101054.69;4985676;28;97100;-77
2023/07/12 07:52:31;;;;;;;1.48;0.80;;;;;;;30.66;37.84;101056.38;4985115;28;100585;-77
2023/07/12 07:54:58;;;;;;;1.83;0.80;;;;;;;30.66;38.22;101059.16;4970268;28;97947;-78
2023/07/12 07:57:25;;;;;;;2.13;0.75;;;;;;;30.65;38.13;101062.16;4969541;28;96673;-77
2023/07/12 07:59:51;;;;;;;1.17;0.80;;;;;;;30.66;38.07;101069.41;4988160;28;96953;-76
2023/07/12 08:02:18;;;;;;;1.30;0.77;;;;;;;30.65;38.18;101067.72;4987500;28;96712;-77
2023/07/12 08:04:45;;;;;;;1.80;0.98;;;;;;;30.66;37.71;101072.16;4958315;28;98373;-77
2023/07/12 08:07:12;;;;;;;1.30;0.82;;;;;;;30.65;37.71;101071.31;4995831;28;96844;-77
2023/07/12 08:09:38;;;;;;;1.42;0.77;;;;;;;30.65;37.98;101068.56;4983918;28;96639;-77
2023/07/12 08:12:05;;;;;;;1.52;0.90;;;;;;;30.64;38.00;101075.19;4984402;28;97010;-77
2023/07/12 08:14:32;;;;;;;1.58;0.88;;;;;;;30.64;37.85;101069.63;4969103;28;97547;-76
2023/07/12 08:16:59;;;;;;;2.03;1.02;;;;;;;30.64;37.79;101075.19;4976818;28;96834;-78
2023/07/12 08:19:25;;;;;;;1.40;0.77;;;;;;;30.65;37.84;101081.56;4982653;28;97729;-78
2023/07/12 08:21:52;;;;;;;1.92;0.90;;;;;;;30.65;37.90;101084.34;4969449;28;98580;-78
2023/07/12 08:24:18;;;;;;;1.23;0.82;;;;;;;30.65;38.08;101076.03;4971246;28;97818;-78
2023/07/12 08:26:45;;;;;;;1.42;0.73;;;;;;;30.66;37.72;101083.25;4972346;28;96705;-77
2023/07/12 08:29:27;;;;;;;1.63;0.80;;;;;;;30.65;37.86;101085.19;4972277;28;96777;-77
2023/07/12 08:31:54;;;;;;;1.73;0.90;;;;;;;30.64;37.74;101085.41;4973983;28;97094;-77
2023/07/12 08:34:20;;;;;;;1.88;0.80;;;;;;;30.64;37.75;101086.28;4983503;28;96905;-78
2023/07/12 08:36:47;;;;;;;1.58;0.80;;;;;;;30.64;37.54;101085.41;4989763;28;96718;-80
2023/07/12 08:39:14;;;;;;;1.77;0.70;;;;;;;30.65;37.61;101085.19;4986585;28;99022;-79
2023/07/12 08:41:40;;;;;;;1.67;0.60;;;;;;;30.66;37.63;101083.25;4972356;28;100100;-80
2023/07/12 08:44:13;;;;;;;2.00;0.90;;;;;;;30.66;37.72;101102.66;4984298;28;96754;-80
2023/07/12 08:46:49;;;;;;;1.25;0.90;;;;;;;30.65;37.80;101098.19;4989383;28;97230;-80
2023/07/12 08:49:17;;;;;;;1.67;0.88;;;;;;;30.64;37.62;101089.03;4976333;28;96927;-80
2023/07/12 08:51:45;;;;;;;1.42;0.80;;;;;;;30.64;37.59;101097.34;4981040;28;98068;-79
2023/07/12 08:54:23;;;;;;;1.73;1.00;;;;;;;30.65;37.45;101104.59;4977336;28;99874;-79
2023/07/12 08:57:14;;;;;;;1.85;1.05;;;;;;;30.65;37.57;101106.53;4981428;28;96848;-79
2023/07/12 08:59:42;;;;;;;1.40;0.82;;;;;;;30.63;37.67;101111.44;4973835;28;96711;-79
2023/07/12 09:02:18;;;;;;;2.15;1.00;;;;;;;30.65;37.72;101109.28;4983861;28;99512;-79
2023/07/12 09:04:44;;;;;;;1.73;0.80;;;;;;;30.64;37.56;101110.38;4988522;28;99158;-80
2023/07/12 09:07:11;;;;;;;1.25;0.73;;;;;;;30.64;37.64;101107.59;4965943;28;97151;-77
2023/07/12 09:09:39;;;;;;;2.03;0.90;;;;;;;30.65;37.56;101100.97;4968439;28;96881;-74
2023/07/12 09:12:22;;;;;;;3.25;1.25;;;;;;;30.62;37.40;101104.22;4977932;28;96866;-79
2023/07/12 09:14:53;;;;;;;2.13;1.10;;;;;;;30.55;37.72;101111.75;4971234;28;96713;-79
2023/07/12 09:17:27;;;;;;;1.73;1.10;;;;;;;30.52;37.71;101109.44;4972472;28;96791;-79
2023/07/12 09:19:53;;;;;;;1.77;1.00;;;;;;;30.48;37.52;101102.69;4966268;28;97203;-79
2023/07/12 09:22:21;;;;;;;2.85;1.00;;;;;;;30.43;37.71;101100.56;4971876;28;98406;-79
2023/07/12 09:24:55;;;;;;;2.22;1.00;;;;;;;30.45;37.86;101103.97;4964354;28;99749;-80
2023/07/12 09:27:25;;;;;;;2.55;0.98;;;;;;;30.42;37.88;101100.81;4985386;28;96618;-79
2023/07/12 09:30:04;;;;;;;1.88;0.95;;;;;;;30.42;37.87;101100.81;4986773;28;97912;-79
2023/07/12 09:32:33;;;;;;;2.08;1.00;;;;;;;30.41;37.68;101088.03;4962415;28;99464;-80
2023/07/12 09:35:02;;;;;;;2.17;1.30;;;;;;;30.40;37.76;101101.03;4982693;28;96855;-79
2023/07/12 09:37:35;;;;;;;2.45;1.10;;;;;;;30.41;37.94;101099.13;4983447;28;96727;-80
2023/07/12 09:40:03;;;;;;;1.45;0.95;;;;;;;30.40;37.83;101094.66;4980548;28;97116;-79
2023/07/12 09:42:30;;;;;;;1.38;1.00;;;;;;;30.40;37.80;101091.88;4972201;28;97898;-79
2023/07/12 09:44:58;;;;;;;2.20;1.08;;;;;;;30.40;37.94;101095.50;4988256;28;97018;-79
2023/07/12 09:47:50;;;;;;;2.45;0.95;;;;;;;30.41;37.95;101085.25;4966499;28;97215;-80
2023/07/12 09:50:32;;;;;;;2.45;1.10;;;;;;;30.39;37.54;101099.34;4962950;28;97108;-80
2023/07/12 09:53:09;;;;;;;1.52;1.10;;;;;;;30.39;37.59;101093.81;4983359;28;96834;-79
2023/07/12 09:55:51;;;;;;;2.58;1.20;;;;;;;30.39;37.70;101082.72;4966102;28;98486;-80
2023/07/12 09:58:35;;;;;;;2.15;1.27;;;;;;;30.39;37.76;101079.94;4976742;28;96830;-80
2023/07/12 10:01:11;;;;;;;2.67;1.10;;;;;;;30.38;37.89;101085.72;4985516;28;96624;-79
2023/07/12 10:03:45;;;;;;;1.02;0.75;;;;;;;30.39;37.96;101087.41;4988336;28;97491;-79
2023/07/12 10:06:27;;;;;;;2.25;1.30;;;;;;;30.40;37.78;101080.78;4976740;28;98010;-79
2023/07/12 10:09:12;;;;;;;2.45;0.90;;;;;;;30.38;37.57;101078.25;4981904;28;96710;-79
2023/07/12 10:11:44;;;;;;;1.77;0.90;;;;;;;30.38;37.86;101078.25;4981551;28;96747;-79
2023/07/12 10:14:14;;;;;;;1.23;0.82;;;;;;;30.39;37.57;101081.88;4978277;28;96770;-80
2023/07/12 10:16:51;;;;;;;2.55;1.15;;;;;;;30.39;37.56;101087.41;4978203;28;96781;-81
2023/07/12 10:19:24;;;;;;;2.78;1.40;;;;;;;30.39;37.82;101074.41;4985977;28;96870;-80
2023/07/12 10:21:54;;;;;;;1.85;1.10;;;;;;;30.39;37.65;101076.34;4979463;28;96717;-80
2023/07/12 10:24:28;;;;;;;2.83;1.17;;;;;;;30.39;37.67;101091.03;4967472;28;96833;-80
2023/07/12 10:26:56;;;;;;;1.73;1.10;;;;;;;30.39;37.43;101082.72;4984157;28;96717;-81
2023/07/12 10:29:33;;;;;;;1.60;0.98;;;;;;;30.40;37.70;101081.66;4987763;28;96813;-80
2023/07/12 10:32:03;;;;;;;1.88;1.30;;;;;;;30.39;37.77;101079.09;4988543;28;96732;-80
2023/07/12 10:34:44;;;;;;;1.85;1.20;;;;;;;30.41;37.65;101076.94;4981956;28;97907;-80
2023/07/12 10:37:28;;;;;;;2.05;0.95;;;;;;;30.41;37.38;101091.66;4987965;28;99387;-80
2023/07/12 10:39:55;;;;;;;2.13;1.20;;;;;;;30.39;37.77;101087.41;4974219;28;96749;-79
2023/07/12 10:42:54;;;;;;;1.98;0.95;;;;;;;30.41;37.55;101101.88;4975067;28;97158;-79
2023/07/12 10:45:25;;;;;;;1.98;1.40;;;;;;;30.39;37.72;101095.72;4983799;28;96933;-79
2023/07/12 10:47:54;;;;;;;1.70;1.10;;;;;;;30.39;37.51;101107.66;4975832;28;96803;-79
2023/07/12 10:50:45;;;;;;;1.83;1.02;;;;;;;30.40;37.68;101089.13;4979888;28;97137;-79
2023/07/12 10:53:20;;;;;;;2.05;1.20;;;;;;;30.40;37.61;101111.28;4972096;28;97082;-80
2023/07/12 10:56:34;;;;;;;1.65;1.10;;;;;;;30.40;37.46;101095.50;4969617;28;99820;-78
2023/07/12 10:59:03;;;;;;;1.90;0.95;;;;;;;30.38;37.32;101094.88;4977927;28;97497;-78
2023/07/12 11:01:42;;;;;;;1.73;1.15;;;;;;;30.40;37.42;101092.72;4985332;28;97118;-78
2023/07/12 11:04:32;;;;;;;1.90;1.20;;;;;;;30.40;37.60;101086.34;4980498;28;97674;-79
2023/07/12 11:07:23;;;;;;;2.17;1.20;;;;;;;30.39;37.44;101102.13;4985303;28;97878;-79
2023/07/12 11:09:54;;;;;;;3.05;1.15;;;;;;;30.39;37.40;101107.66;4976001;28;96876;-80
2023/07/12 11:12:26;;;;;;;1.73;1.10;;;;;;;30.39;37.54;101090.19;4988169;28;96856;-78
2023/07/12 11:15:15;;;;;;;2.42;1.20;;;;;;;30.40;37.55;101095.50;4971471;28;96678;-79
2023/07/12 11:17:50;;;;;;;1.80;0.90;;;;;;;30.40;37.46;101087.19;4982096;28;96919;-78
2023/07/12 11:20:26;;;;;;;2.33;1.27;;;;;;;30.40;37.27;101100.19;4970782;28;96836;-79
2023/07/12 11:23:17;;;;;;;2.22;1.23;;;;;;;30.40;37.42;101086.34;4987897;28;96765;-78
2023/07/12 11:25:44;;;;;;;2.50;1.17;;;;;;;30.39;37.21;101087.41;4961853;28;96912;-78
2023/07/12 11:28:20;;;;;;;3.20;1.58;;;;;;;30.40;37.19;101092.72;4987025;28;97084;-78
2023/07/12 11:31:02;;;;;;;2.40;1.05;;;;;;;30.40;37.28;101080.78;4994759;28;96900;-80
2023/07/12 11:33:32;;;;;;;3.33;1.30;;;;;;;30.39;37.37;101085.50;4967210;28;97176;-81
2023/07/12 11:36:09;;;;;;;1.88;1.02;;;;;;;30.41;37.38;101090.81;4976861;28;97014;-82